Mid Fortune — ZGCG8 — position and weather

sailwx.info

Track history (hours):
 
Tides and Currents Weather Stations Pressure Air Temp Water Temp Dewpoint Dewpoint Depression Visibility Wind Speed Wind Dir Waves Ship Positions

Mid Fortune

Last reported at 2017-Jul-16 02:38 UTC. Time now 2017-Jul-20 20:25 UTC.
Position N 01°21' E 103°18'.

Length 147 m; draft 7.8 m.

Type: Ship. MMSI: 319182000.

Date/timePositionNaut miles runAvg speedWind from/ knotsBaromVisibWave heightAir tempDewpointWater temp
2017-Jul-16 02:38N 01°21' E 103°18'313.7
2017-Jul-16 02:23N 01°18' E 103°20'513.9
2017-Jul-16 02:00N 01°14' E 103°24'713.4
2017-Jul-16 01:30N 01°13' E 103°30'611.7
2017-Jul-16 01:00N 01°12' E 103°36'3 6.5
2017-Jul-16 00:30N 01°13' E 103°39'1 2.2
2017-Jul-15 23:57N 01°14' E 103°39'0 0.0
2017-Jul-15 23:30N 01°14' E 103°39'0 0.0
2017-Jul-15 22:57N 01°14' E 103°39'0 0.0
2017-Jul-15 22:30N 01°14' E 103°39'0 0.0
2017-Jul-15 22:00N 01°14' E 103°39'0 0.0
2017-Jul-15 21:21N 01°14' E 103°39'0 0.0
2017-Jul-15 21:00N 01°14' E 103°39'0 0.0
2017-Jul-15 20:30N 01°14' E 103°39'0 0.0
2017-Jul-15 20:00N 01°14' E 103°39'0 0.0
2017-Jul-15 19:27N 01°14' E 103°39'0 0.1
2017-Jul-15 19:00N 01°14' E 103°39'0 0.0
2017-Jul-15 18:24N 01°14' E 103°39'0 0.0
2017-Jul-15 17:48N 01°14' E 103°39'0 0.0
2017-Jul-15 17:24N 01°14' E 103°39'0 0.0
2017-Jul-15 17:00N 01°14' E 103°39'0 0.0
2017-Jul-15 16:30N 01°14' E 103°39'0 0.0
2017-Jul-15 15:57N 01°14' E 103°39'0 0.1
2017-Jul-15 15:27N 01°14' E 103°39'0 0.3
2017-Jul-15 15:00N 01°14' E 103°39'3 2.7
2017-Jul-15 13:55N 01°16' E 103°41'0 0.2
2017-Jul-15 13:28N 01°16' E 103°41'0 0.0
2017-Jul-15 12:58N 01°16' E 103°41'0 0.0
2017-Jul-15 12:25N 01°16' E 103°41'0 0.0
2017-Jul-15 11:58N 01°16' E 103°41'0 0.0
2017-Jul-15 11:28N 01°16' E 103°41'0 0.0
2017-Jul-15 10:58N 01°16' E 103°41'0 0.0
2017-Jul-15 10:28N 01°16' E 103°41'0 0.0
2017-Jul-15 09:55N 01°16' E 103°41'0 0.0
2017-Jul-15 09:28N 01°16' E 103°41'0 0.0
2017-Jul-15 08:58N 01°16' E 103°41'0 0.0
2017-Jul-15 08:28N 01°16' E 103°41'0 0.0
2017-Jul-15 07:58N 01°16' E 103°41'0 0.0
2017-Jul-15 07:28N 01°16' E 103°41'0 0.0
2017-Jul-15 06:58N 01°16' E 103°41'0 0.0
2017-Jul-15 06:22N 01°16' E 103°41'0 0.0
2017-Jul-15 05:58N 01°16' E 103°41'0 0.0
2017-Jul-15 05:25N 01°16' E 103°41'0 0.0
2017-Jul-15 04:58N 01°16' E 103°41'0 0.0
2017-Jul-15 04:28N 01°16' E 103°41'0 0.0
2017-Jul-15 03:55N 01°16' E 103°41'0 0.0
2017-Jul-15 03:28N 01°16' E 103°41'0 0.0
2017-Jul-15 02:58N 01°16' E 103°41'0 0.0
2017-Jul-15 02:28N 01°16' E 103°41'0 0.0
2017-Jul-15 01:58N 01°16' E 103°41'0 0.0
2017-Jul-15 01:19N 01°16' E 103°41'0 0.0
2017-Jul-15 00:58N 01°16' E 103°41'0 0.0
2017-Jul-15 00:28N 01°16' E 103°41'0 0.0
2017-Jul-14 23:58N 01°16' E 103°41'0 0.0
2017-Jul-14 23:25N 01°16' E 103°41'0 0.0
2017-Jul-14 22:55N 01°16' E 103°41'0 0.0
2017-Jul-14 22:28N 01°16' E 103°41'0 0.0
2017-Jul-14 21:58N 01°16' E 103°41'0 0.0
2017-Jul-14 21:28N 01°16' E 103°41'0 0.0
2017-Jul-14 20:58N 01°16' E 103°41'0 0.0
2017-Jul-14 20:28N 01°16' E 103°41'0 0.0
2017-Jul-14 20:00N 01°16' E 103°41'1 1.2
2017-Jul-14 19:31N 01°15' E 103°41'2 4.7
2017-Jul-14 19:00N 01°13' E 103°41'2 4.3
2017-Jul-14 18:30N 01°13' E 103°39'0 0.7
2017-Jul-14 17:55N 01°14' E 103°39'0 0.2
2017-Jul-14 17:22N 01°14' E 103°39'0 0.0
2017-Jul-14 16:55N 01°14' E 103°39'0 0.1
2017-Jul-14 16:22N 01°14' E 103°39'0 0.1
2017-Jul-14 15:55N 01°14' E 103°39'0 0.0
2017-Jul-14 15:28N 01°14' E 103°39'0 0.0
2017-Jul-14 14:58N 01°14' E 103°39'0 0.0
2017-Jul-14 14:25N 01°14' E 103°39'0 0.1
2017-Jul-14 13:46N 01°14' E 103°39'0 0.0
2017-Jul-14 13:25N 01°14' E 103°39'0 0.1
2017-Jul-14 12:55N 01°14' E 103°39'0 0.0
2017-Jul-14 12:25N 01°14' E 103°39'0 0.1
2017-Jul-14 11:55N 01°14' E 103°39'0 0.3
2017-Jul-14 11:30N 01°13' E 103°39'3 5.6
2017-Jul-14 11:00N 01°11' E 103°40'4 7.5
2017-Jul-14 10:30N 01°09' E 103°43'510.3
2017-Jul-14 10:00N 01°11' E 103°48'612.5
2017-Jul-14 09:30N 01°13' E 103°54'  
2017-Jul-07 14:00N 01°12' E 103°53'612.3
2017-Jul-07 13:30N 01°09' E 103°47'612.2
2017-Jul-07 13:00N 01°05' E 103°43'611.2
2017-Jul-07 12:30N 01°03' E 103°37'610.8
2017-Jul-07 11:58N 01°07' E 103°33'2 4.3
2017-Jul-07 11:30N 01°09' E 103°32'4 9.0
2017-Jul-07 11:00N 01°11' E 103°36'4 7.4
2017-Jul-07 10:30N 01°13' E 103°40'4 7.4
2017-Jul-07 10:00N 01°16' E 103°39'0 0.5
2017-Jul-07 09:27N 01°17' E 103°39'0 0.0
2017-Jul-07 09:00N 01°17' E 103°39'0 0.0
2017-Jul-07 08:30N 01°17' E 103°39'0 0.1
2017-Jul-07 08:00N 01°17' E 103°39'0 0.1
2017-Jul-07 07:21N 01°17' E 103°39'0 0.0
2017-Jul-07 06:57N 01°17' E 103°39'0 0.0
2017-Jul-07 06:30N 01°17' E 103°39'0 0.0
2017-Jul-07 05:57N 01°17' E 103°39'0 0.0
2017-Jul-07 05:30N 01°17' E 103°39'0 0.0
2017-Jul-07 04:57N 01°17' E 103°39'0 0.0
2017-Jul-07 04:30N 01°17' E 103°39'0 0.0
2017-Jul-07 03:51N 01°17' E 103°39'0 0.0
2017-Jul-07 03:30N 01°17' E 103°39'  
Track history (hours):
 
Tides and Currents Weather Stations Pressure Air Temp Water Temp Dewpoint Dewpoint Depression Visibility Wind Speed Wind Dir Waves Ship Positions

Mid Fortune

Last reported at 2017-Jul-16 02:38 UTC. Time now 2017-Jul-20 20:25 UTC.
Position N 01°21' E 103°18'.

Length 147 m; draft 7.8 m.

Type: Ship. MMSI: 319182000.

Date/timePositionNaut miles runAvg speedWind from/ knotsBaromVisibWave heightAir tempDewpointWater temp
2017-Jul-16 02:38N 01°21' E 103°18'313.7
2017-Jul-16 02:23N 01°18' E 103°20'513.9
2017-Jul-16 02:00N 01°14' E 103°24'713.4
2017-Jul-16 01:30N 01°13' E 103°30'611.7
2017-Jul-16 01:00N 01°12' E 103°36'3 6.5
2017-Jul-16 00:30N 01°13' E 103°39'1 2.2
2017-Jul-15 23:57N 01°14' E 103°39'0 0.0
2017-Jul-15 23:30N 01°14' E 103°39'0 0.0
2017-Jul-15 22:57N 01°14' E 103°39'0 0.0
2017-Jul-15 22:30N 01°14' E 103°39'0 0.0
2017-Jul-15 22:00N 01°14' E 103°39'0 0.0
2017-Jul-15 21:21N 01°14' E 103°39'0 0.0
2017-Jul-15 21:00N 01°14' E 103°39'0 0.0
2017-Jul-15 20:30N 01°14' E 103°39'0 0.0
2017-Jul-15 20:00N 01°14' E 103°39'0 0.0
2017-Jul-15 19:27N 01°14' E 103°39'0 0.1
2017-Jul-15 19:00N 01°14' E 103°39'0 0.0
2017-Jul-15 18:24N 01°14' E 103°39'0 0.0
2017-Jul-15 17:48N 01°14' E 103°39'0 0.0
2017-Jul-15 17:24N 01°14' E 103°39'0 0.0
2017-Jul-15 17:00N 01°14' E 103°39'0 0.0
2017-Jul-15 16:30N 01°14' E 103°39'0 0.0
2017-Jul-15 15:57N 01°14' E 103°39'0 0.1
2017-Jul-15 15:27N 01°14' E 103°39'0 0.3
2017-Jul-15 15:00N 01°14' E 103°39'3 2.7
2017-Jul-15 13:55N 01°16' E 103°41'0 0.2
2017-Jul-15 13:28N 01°16' E 103°41'0 0.0
2017-Jul-15 12:58N 01°16' E 103°41'0 0.0
2017-Jul-15 12:25N 01°16' E 103°41'0 0.0
2017-Jul-15 11:58N 01°16' E 103°41'0 0.0
2017-Jul-15 11:28N 01°16' E 103°41'0 0.0
2017-Jul-15 10:58N 01°16' E 103°41'0 0.0
2017-Jul-15 10:28N 01°16' E 103°41'0 0.0
2017-Jul-15 09:55N 01°16' E 103°41'0 0.0
2017-Jul-15 09:28N 01°16' E 103°41'0 0.0
2017-Jul-15 08:58N 01°16' E 103°41'0 0.0
2017-Jul-15 08:28N 01°16' E 103°41'0 0.0
2017-Jul-15 07:58N 01°16' E 103°41'0 0.0
2017-Jul-15 07:28N 01°16' E 103°41'0 0.0
2017-Jul-15 06:58N 01°16' E 103°41'0 0.0
2017-Jul-15 06:22N 01°16' E 103°41'0 0.0
2017-Jul-15 05:58N 01°16' E 103°41'0 0.0
2017-Jul-15 05:25N 01°16' E 103°41'0 0.0
2017-Jul-15 04:58N 01°16' E 103°41'0 0.0
2017-Jul-15 04:28N 01°16' E 103°41'0 0.0
2017-Jul-15 03:55N 01°16' E 103°41'0 0.0
2017-Jul-15 03:28N 01°16' E 103°41'0 0.0
2017-Jul-15 02:58N 01°16' E 103°41'0 0.0
2017-Jul-15 02:28N 01°16' E 103°41'0 0.0
2017-Jul-15 01:58N 01°16' E 103°41'0 0.0
2017-Jul-15 01:19N 01°16' E 103°41'0 0.0
2017-Jul-15 00:58N 01°16' E 103°41'0 0.0
2017-Jul-15 00:28N 01°16' E 103°41'0 0.0
2017-Jul-14 23:58N 01°16' E 103°41'0 0.0
2017-Jul-14 23:25N 01°16' E 103°41'0 0.0
2017-Jul-14 22:55N 01°16' E 103°41'0 0.0
2017-Jul-14 22:28N 01°16' E 103°41'0 0.0
2017-Jul-14 21:58N 01°16' E 103°41'0 0.0
2017-Jul-14 21:28N 01°16' E 103°41'0 0.0
2017-Jul-14 20:58N 01°16' E 103°41'0 0.0
2017-Jul-14 20:28N 01°16' E 103°41'0 0.0
2017-Jul-14 20:00N 01°16' E 103°41'1 1.2
2017-Jul-14 19:31N 01°15' E 103°41'2 4.7
2017-Jul-14 19:00N 01°13' E 103°41'2 4.3
2017-Jul-14 18:30N 01°13' E 103°39'0 0.7
2017-Jul-14 17:55N 01°14' E 103°39'0 0.2
2017-Jul-14 17:22N 01°14' E 103°39'0 0.0
2017-Jul-14 16:55N 01°14' E 103°39'0 0.1
2017-Jul-14 16:22N 01°14' E 103°39'0 0.1
2017-Jul-14 15:55N 01°14' E 103°39'0 0.0
2017-Jul-14 15:28N 01°14' E 103°39'0 0.0
2017-Jul-14 14:58N 01°14' E 103°39'0 0.0
2017-Jul-14 14:25N 01°14' E 103°39'0 0.1
2017-Jul-14 13:46N 01°14' E 103°39'0 0.0
2017-Jul-14 13:25N 01°14' E 103°39'0 0.1
2017-Jul-14 12:55N 01°14' E 103°39'0 0.0
2017-Jul-14 12:25N 01°14' E 103°39'0 0.1
2017-Jul-14 11:55N 01°14' E 103°39'0 0.3
2017-Jul-14 11:30N 01°13' E 103°39'3 5.6
2017-Jul-14 11:00N 01°11' E 103°40'4 7.5
2017-Jul-14 10:30N 01°09' E 103°43'510.3
2017-Jul-14 10:00N 01°11' E 103°48'612.5
2017-Jul-14 09:30N 01°13' E 103°54'  
2017-Jul-07 14:00N 01°12' E 103°53'612.3
2017-Jul-07 13:30N 01°09' E 103°47'612.2
2017-Jul-07 13:00N 01°05' E 103°43'611.2
2017-Jul-07 12:30N 01°03' E 103°37'610.8
2017-Jul-07 11:58N 01°07' E 103°33'2 4.3
2017-Jul-07 11:30N 01°09' E 103°32'4 9.0
2017-Jul-07 11:00N 01°11' E 103°36'4 7.4
2017-Jul-07 10:30N 01°13' E 103°40'4 7.4
2017-Jul-07 10:00N 01°16' E 103°39'0 0.5
2017-Jul-07 09:27N 01°17' E 103°39'0 0.0
2017-Jul-07 09:00N 01°17' E 103°39'0 0.0
2017-Jul-07 08:30N 01°17' E 103°39'0 0.1
2017-Jul-07 08:00N 01°17' E 103°39'0 0.1
2017-Jul-07 07:21N 01°17' E 103°39'0 0.0
2017-Jul-07 06:57N 01°17' E 103°39'0 0.0
2017-Jul-07 06:30N 01°17' E 103°39'0 0.0
2017-Jul-07 05:57N 01°17' E 103°39'0 0.0
2017-Jul-07 05:30N 01°17' E 103°39'0 0.0
2017-Jul-07 04:57N 01°17' E 103°39'0 0.0
2017-Jul-07 04:30N 01°17' E 103°39'0 0.0
2017-Jul-07 03:51N 01°17' E 103°39'0 0.0
2017-Jul-07 03:30N 01°17' E 103°39'  

Dump ship's entire track history